createdAt,value
2019-04-06T00:02:14.457Z,39.10
2019-04-06T00:04:45.728Z,39.20
2019-04-06T00:07:17.327Z,39.30
2019-04-06T00:09:48.619Z,39.60
2019-04-06T00:12:19.924Z,39.90
2019-04-06T00:14:51.187Z,40.30
2019-04-06T00:17:22.644Z,40.40
2019-04-06T00:19:53.877Z,40.30
2019-04-06T00:22:25.111Z,40.00
2019-04-06T00:24:56.367Z,39.80
2019-04-06T00:27:27.517Z,39.70
2019-04-06T00:29:59.650Z,39.50
2019-04-06T00:32:34.448Z,39.70
2019-04-06T00:35:05.902Z,39.70
2019-04-06T00:37:36.858Z,39.30
2019-04-06T00:40:09.396Z,39.50
2019-04-06T00:42:41.562Z,39.50
2019-04-06T00:45:13.571Z,39.30
2019-04-06T00:47:44.822Z,38.90
2019-04-06T00:50:17.499Z,39.00
2019-04-06T00:52:48.677Z,39.10
2019-04-06T00:55:19.687Z,39.10
2019-04-06T00:57:51.160Z,39.20
2019-04-06T01:00:22.858Z,39.30
2019-04-06T01:02:54.075Z,39.70
2019-04-06T01:05:25.498Z,39.70
2019-04-06T01:07:56.730Z,39.70
2019-04-06T01:10:27.941Z,39.90
2019-04-06T01:12:59.192Z,39.60
2019-04-06T01:15:30.281Z,39.90
2019-04-06T01:18:01.633Z,39.80
2019-04-06T01:20:32.832Z,39.90
2019-04-06T01:23:04.062Z,39.80
2019-04-06T01:25:35.902Z,39.70
2019-04-06T01:28:06.795Z,39.60
2019-04-06T01:30:37.663Z,39.80
2019-04-06T01:33:08.887Z,39.80
2019-04-06T01:35:40.845Z,39.80
2019-04-06T01:38:11.705Z,39.90
2019-04-06T01:40:42.587Z,39.80
2019-04-06T01:43:13.697Z,39.70
2019-04-06T01:45:44.976Z,39.90
2019-04-06T01:48:16.380Z,39.80
2019-04-06T01:50:47.642Z,39.70
2019-04-06T01:53:19.864Z,39.70
2019-04-06T01:55:51.265Z,39.70
2019-04-06T01:58:22.445Z,39.80
2019-04-06T02:01:06.562Z,39.70
2019-04-06T02:03:37.880Z,39.90
2019-04-06T02:06:09.120Z,40.10
2019-04-06T02:08:40.443Z,40.30
2019-04-06T02:11:11.580Z,40.20
2019-04-06T02:13:42.787Z,40.20
2019-04-06T02:16:14.034Z,40.20
2019-04-06T02:18:45.345Z,39.80
2019-04-06T02:21:16.705Z,40.00
2019-04-06T02:23:47.997Z,40.10
2019-04-06T02:26:29.726Z,40.10
2019-04-06T02:28:51.643Z,40.30
2019-04-06T02:31:53.747Z,40.50
2019-04-06T02:34:55.552Z,40.50
2019-04-06T02:37:50.557Z,40.30
2019-04-06T02:40:46.589Z,40.30
2019-04-06T02:43:29.595Z,40.30
2019-04-06T02:46:00.975Z,40.80
2019-04-06T02:48:32.145Z,40.80
2019-04-06T02:51:03.522Z,40.80
2019-04-06T02:53:34.490Z,40.50
2019-04-06T02:56:05.863Z,40.80
2019-04-06T02:58:37.175Z,41.00
2019-04-06T03:01:08.459Z,41.00
2019-04-06T03:03:39.628Z,41.10
2019-04-06T03:06:10.874Z,41.50
2019-04-06T03:08:42.165Z,41.40
2019-04-06T03:11:13.423Z,41.30
2019-04-06T03:13:44.691Z,41.30
2019-04-06T03:16:15.994Z,41.40
2019-04-06T03:18:47.269Z,41.20
2019-04-06T03:21:18.461Z,41.40
2019-04-06T03:23:52.136Z,41.50
2019-04-06T03:26:22.843Z,41.50
2019-04-06T03:28:54.073Z,41.40
2019-04-06T03:31:27.714Z,41.40
2019-04-06T03:33:58.561Z,41.60
2019-04-06T03:36:29.863Z,41.80
2019-04-06T03:39:00.824Z,41.70
2019-04-06T03:41:33.702Z,41.60
2019-04-06T03:44:04.972Z,41.50
2019-04-06T03:46:36.194Z,41.50
2019-04-06T03:49:07.436Z,41.60
2019-04-06T03:51:38.506Z,41.70
2019-04-06T03:54:09.686Z,41.60
2019-04-06T03:56:40.852Z,41.50
2019-04-06T03:59:12.040Z,41.60
2019-04-06T04:01:43.077Z,41.20
2019-04-06T04:04:15.476Z,41.40
2019-04-06T04:06:46.461Z,41.60
2019-04-06T04:09:17.323Z,41.40
2019-04-06T04:11:48.317Z,41.40
2019-04-06T04:14:19.128Z,41.40
2019-04-06T04:16:49.997Z,41.60
2019-04-06T04:19:20.823Z,41.50
2019-04-06T04:21:51.639Z,41.10
2019-04-06T04:24:22.797Z,41.10
2019-04-06T04:26:53.902Z,40.20
2019-04-06T04:29:24.744Z,38.80
2019-04-06T04:31:55.589Z,37.10
2019-04-06T04:34:26.435Z,36.10
2019-04-06T04:36:57.303Z,34.50
2019-04-06T04:39:28.434Z,33.70
2019-04-06T04:41:59.406Z,33.20
2019-04-06T04:44:30.511Z,33.60
2019-04-06T04:47:01.474Z,33.40
2019-04-06T04:49:33.325Z,32.50
2019-04-06T04:52:04.187Z,31.80
2019-04-06T04:54:35.063Z,31.00
2019-04-06T04:57:08.860Z,30.20
2019-04-06T04:59:39.789Z,29.90
2019-04-06T05:02:10.617Z,29.50
2019-04-06T05:04:41.503Z,29.40
2019-04-06T05:07:12.452Z,29.80
2019-04-06T05:09:43.343Z,28.50
2019-04-06T05:12:14.252Z,28.00
2019-04-06T05:14:59.747Z,27.20
2019-04-06T05:17:30.879Z,26.80
2019-04-06T05:20:01.978Z,27.30
2019-04-06T05:22:32.899Z,27.30
2019-04-06T05:25:04.569Z,26.80
2019-04-06T05:27:35.421Z,27.30
2019-04-06T05:30:08.526Z,26.60
2019-04-06T05:32:39.464Z,25.30
2019-04-06T05:35:10.739Z,24.90
2019-04-06T05:37:41.709Z,24.50
2019-04-06T05:40:12.765Z,24.00
2019-04-06T05:42:43.625Z,24.30
2019-04-06T05:45:14.878Z,24.50
2019-04-06T05:47:45.983Z,24.40
2019-04-06T05:50:16.932Z,24.20
2019-04-06T05:52:47.849Z,23.80
2019-04-06T05:55:18.848Z,23.00
2019-04-06T05:57:49.690Z,23.80
2019-04-06T06:00:20.843Z,23.40
2019-04-06T06:02:51.823Z,23.00
2019-04-06T06:05:22.694Z,23.10
2019-04-06T06:07:53.596Z,21.80
2019-04-06T06:10:24.464Z,22.60
2019-04-06T06:12:55.422Z,22.10
2019-04-06T06:15:26.366Z,22.70
2019-04-06T06:17:57.276Z,22.60
2019-04-06T06:20:28.139Z,22.80
2019-04-06T06:22:58.987Z,22.10
2019-04-06T06:25:29.863Z,21.50
2019-04-06T06:28:00.773Z,21.00
2019-04-06T06:30:31.910Z,21.20
2019-04-06T06:33:03.052Z,20.80
2019-04-06T06:35:34.002Z,21.40
2019-04-06T06:38:05.052Z,21.70
2019-04-06T06:40:35.899Z,20.90
2019-04-06T06:43:08.065Z,21.80
2019-04-06T06:45:39.094Z,21.90
2019-04-06T06:48:09.924Z,21.00
2019-04-06T06:50:40.926Z,20.60
2019-04-06T06:53:12.013Z,20.40
2019-04-06T06:55:42.981Z,20.90
2019-04-06T06:58:24.243Z,20.20
2019-04-06T07:00:46.423Z,20.50
2019-04-06T07:03:17.664Z,19.70
2019-04-06T07:05:48.674Z,20.40
2019-04-06T07:08:19.668Z,19.50
2019-04-06T07:10:50.561Z,19.60
2019-04-06T07:13:21.686Z,20.70
2019-04-06T07:15:52.632Z,20.00
2019-04-06T07:18:23.487Z,19.20
2019-04-06T07:20:54.801Z,19.80
2019-04-06T07:23:25.760Z,19.40
2019-04-06T07:25:58.936Z,19.60
2019-04-06T07:28:37.592Z,20.00
2019-04-06T07:31:01.765Z,19.50
2019-04-06T07:33:32.621Z,18.90
2019-04-06T07:36:03.467Z,19.60
2019-04-06T07:38:34.781Z,19.40
2019-04-06T07:41:08.033Z,19.30
2019-04-06T07:43:39.073Z,19.30
2019-04-06T07:46:10.009Z,19.90
2019-04-06T07:48:41.061Z,20.00
2019-04-06T07:51:12.588Z,20.50
2019-04-06T07:53:43.592Z,20.40
2019-04-06T07:56:14.613Z,20.10
2019-04-06T07:58:49.162Z,19.60
2019-04-06T08:01:18.214Z,19.20
2019-04-06T08:03:49.332Z,18.40
2019-04-06T08:06:20.186Z,19.00
2019-04-06T08:08:51.920Z,18.30
2019-04-06T08:11:22.782Z,18.20
2019-04-06T08:13:53.625Z,18.80
2019-04-06T08:16:24.797Z,19.50
2019-04-06T08:18:55.656Z,19.40
2019-04-06T08:21:27.569Z,18.80
2019-04-06T08:23:58.626Z,18.60
2019-04-06T08:26:30.684Z,18.80
2019-04-06T08:29:02.728Z,18.60
2019-04-06T08:31:33.795Z,18.10
2019-04-06T08:34:04.691Z,17.70
2019-04-06T08:36:35.704Z,17.60
2019-04-06T08:39:11.508Z,18.20
2019-04-06T08:41:42.361Z,18.10
2019-04-06T08:44:13.412Z,17.00
2019-04-06T08:46:44.252Z,17.10
2019-04-06T08:49:15.160Z,18.00
2019-04-06T08:51:46.206Z,19.00
2019-04-06T08:54:17.512Z,20.70
2019-04-06T08:56:48.511Z,19.40
2019-04-06T08:59:19.389Z,19.90
2019-04-06T09:01:50.320Z,20.00
2019-04-06T09:04:21.231Z,20.40
2019-04-06T09:06:52.168Z,20.50
2019-04-06T09:09:23.133Z,20.90
2019-04-06T09:11:54.128Z,21.30
2019-04-06T09:14:25.339Z,20.80
2019-04-06T09:16:56.612Z,21.00
2019-04-06T09:19:27.969Z,21.00
2019-04-06T09:21:58.936Z,20.70
2019-04-06T09:24:30.158Z,20.20
2019-04-06T09:27:01.065Z,21.00
2019-04-06T09:29:31.981Z,21.20
2019-04-06T09:32:02.993Z,20.50
2019-04-06T09:34:34.131Z,20.90
2019-04-06T09:37:05.228Z,20.70
2019-04-06T09:39:36.239Z,21.10
2019-04-06T09:42:07.203Z,20.70
2019-04-06T09:44:44.596Z,20.90
2019-04-06T09:47:32.833Z,21.20
2019-04-06T09:50:30.005Z,20.60
2019-04-06T09:53:08.744Z,21.30
2019-04-06T09:55:56.279Z,21.70
2019-04-06T09:58:49.332Z,21.30
2019-04-06T10:01:39.482Z,21.70
2019-04-06T10:04:31.333Z,21.50
2019-04-06T10:07:49.308Z,21.40
2019-04-06T10:14:14.464Z,21.80
2019-04-06T10:17:22.285Z,21.60
2019-04-06T10:20:24.379Z,21.90
2019-04-06T10:23:19.081Z,22.40
2019-04-06T10:26:10.921Z,21.80
2019-04-06T10:32:29.501Z,22.30
2019-04-06T10:35:30.951Z,22.90
2019-04-06T10:38:33.952Z,22.60
2019-04-06T10:41:31.288Z,23.00
2019-04-06T10:44:29.423Z,22.70
2019-04-06T10:47:26.785Z,22.90
2019-04-06T10:50:42.835Z,23.20
2019-04-06T10:53:43.304Z,23.10
2019-04-06T10:56:42.347Z,23.00
2019-04-06T11:00:04.226Z,23.50
2019-04-06T11:03:19.219Z,23.70
2019-04-06T11:06:20.961Z,23.50
2019-04-06T11:09:44.741Z,23.70
2019-04-06T11:12:54.222Z,23.70
2019-04-06T11:15:48.724Z,23.60
2019-04-06T11:18:51.008Z,23.90
2019-04-06T11:22:08.531Z,24.10
2019-04-06T11:25:10.248Z,24.00
2019-04-06T11:28:19.623Z,24.00
2019-04-06T11:31:23.567Z,23.90
2019-04-06T11:34:22.576Z,24.20
2019-04-06T11:37:12.536Z,24.30
2019-04-06T11:39:56.112Z,24.20
2019-04-06T11:42:41.576Z,24.80
2019-04-06T11:45:31.360Z,24.60
2019-04-06T11:48:17.389Z,24.60
2019-04-06T11:51:22.963Z,24.30
2019-04-06T11:54:09.555Z,24.20
2019-04-06T11:57:02.913Z,24.30
2019-04-06T12:00:07.803Z,24.20
2019-04-06T12:02:53.653Z,24.40
2019-04-06T12:05:58.847Z,24.60
2019-04-06T12:08:48.846Z,24.50
2019-04-06T12:11:39.066Z,24.40
2019-04-06T12:14:18.752Z,24.40
2019-04-06T12:17:06.223Z,24.40
2019-04-06T12:20:07.102Z,24.40
2019-04-06T12:23:05.671Z,24.40
2019-04-06T12:25:55.745Z,24.10
2019-04-06T12:28:45.922Z,24.30
2019-04-06T12:31:31.596Z,24.50
2019-04-06T12:34:30.185Z,24.20
2019-04-06T12:37:35.076Z,24.30
2019-04-06T12:40:16.287Z,24.00
2019-04-06T12:42:57.462Z,24.30
2019-04-06T12:45:57.497Z,24.40
2019-04-06T12:48:40.858Z,24.40
2019-04-06T12:51:29.540Z,24.40
2019-04-06T12:54:18.889Z,24.40
2019-04-06T12:57:07.743Z,24.20
2019-04-06T12:59:49.104Z,24.00
2019-04-06T13:02:28.014Z,24.10
2019-04-06T13:05:16.043Z,24.30
2019-04-06T13:08:05.723Z,23.90
2019-04-06T13:11:13.831Z,23.80
2019-04-06T13:14:02.366Z,23.50
2019-04-06T13:16:38.492Z,23.30
2019-04-06T13:19:22.908Z,23.40
2019-04-06T13:22:16.417Z,23.40
2019-04-06T13:25:04.814Z,23.80
2019-04-06T13:27:51.248Z,23.60
2019-04-06T13:30:41.051Z,24.10
2019-04-06T13:33:29.431Z,24.10
2019-04-06T13:36:23.237Z,24.20
2019-04-06T13:39:12.921Z,23.80
2019-04-06T13:42:02.828Z,23.80
2019-04-06T13:44:41.266Z,23.50
2019-04-06T13:47:34.020Z,23.80
2019-04-06T13:50:42.359Z,23.60
2019-04-06T13:53:22.681Z,23.60
2019-04-06T13:56:12.354Z,23.50
2019-04-06T13:58:54.784Z,23.70
2019-04-06T14:01:56.338Z,23.80
2019-04-06T14:04:43.406Z,23.90
2019-04-06T14:07:33.240Z,23.70
2019-04-06T14:10:22.724Z,23.50
2019-04-06T14:13:18.068Z,23.60
2019-04-06T14:16:06.475Z,23.50
2019-04-06T14:18:56.262Z,23.70
2019-04-06T14:21:55.388Z,24.20
2019-04-06T14:24:50.707Z,24.20
2019-04-06T14:27:33.801Z,23.80
2019-04-06T14:30:20.302Z,23.20
2019-04-06T14:33:06.628Z,23.00
2019-04-06T14:36:01.517Z,23.00
2019-04-06T14:38:54.125Z,22.80
2019-04-06T14:41:42.620Z,22.90
2019-04-06T14:44:37.669Z,22.70
2019-04-06T14:47:20.960Z,22.80
2019-04-06T14:50:09.933Z,22.60
2019-04-06T14:53:02.757Z,22.80
2019-04-06T14:55:42.666Z,23.00
2019-04-06T14:58:26.060Z,22.70
2019-04-06T15:01:18.832Z,22.00
2019-04-06T15:04:09.142Z,22.30
2019-04-06T15:07:12.761Z,22.20
2019-04-06T15:10:01.385Z,22.00
2019-04-06T15:12:51.242Z,22.20
2019-04-06T15:15:53.306Z,22.30
2019-04-06T15:18:40.896Z,22.00
2019-04-06T15:21:38.358Z,21.80
2019-04-06T15:24:21.278Z,22.10
2019-04-06T15:27:21.708Z,22.70
2019-04-06T15:30:15.628Z,22.80
2019-04-06T15:32:54.063Z,23.10
2019-04-06T15:35:43.764Z,23.20
2019-04-06T15:38:39.583Z,22.90
2019-04-06T15:41:27.799Z,22.80
2019-04-06T15:44:26.687Z,23.10
2019-04-06T15:47:17.704Z,23.00
2019-04-06T15:50:10.221Z,23.10
2019-04-06T15:52:51.256Z,23.40
2019-04-06T15:55:50.191Z,24.10
2019-04-06T15:58:46.077Z,24.20
2019-04-06T16:01:38.748Z,24.40
2019-04-06T16:04:31.216Z,24.80
2019-04-06T16:07:29.816Z,25.20
2019-04-06T16:10:02.835Z,25.40
2019-04-06T16:12:58.599Z,25.10
2019-04-06T16:15:43.874Z,24.70
2019-04-06T16:18:45.477Z,24.70
2019-04-06T16:21:33.866Z,25.00
2019-04-06T16:24:18.149Z,24.60
2019-04-06T16:27:05.169Z,24.70
2019-04-06T16:30:05.067Z,24.50
2019-04-06T16:32:57.882Z,24.20
2019-04-06T16:35:53.719Z,24.20
2019-04-06T16:38:43.375Z,24.20
2019-04-06T16:41:25.076Z,24.40
2019-04-06T16:44:15.586Z,24.80
2019-04-06T16:47:05.425Z,24.90
2019-04-06T16:49:55.245Z,25.20
2019-04-06T16:52:48.400Z,25.60
2019-04-06T16:55:30.115Z,25.70
2019-04-06T16:58:18.870Z,25.70
2019-04-06T17:00:59.371Z,26.60
2019-04-06T17:03:48.289Z,25.90
2019-04-06T17:06:54.471Z,26.20
2019-04-06T17:09:50.031Z,26.40
2019-04-06T17:12:31.017Z,26.60
2019-04-06T17:15:24.666Z,26.80
2019-04-06T17:18:14.505Z,27.00
2019-04-06T17:21:04.658Z,27.30
2019-04-06T17:23:57.449Z,27.40
2019-04-06T17:26:44.912Z,27.60
2019-04-06T17:29:47.119Z,28.00
2019-04-06T17:32:35.437Z,28.10
2019-04-06T17:35:21.814Z,28.10
2019-04-06T17:38:11.610Z,28.10
2019-04-06T17:41:11.292Z,28.20
2019-04-06T17:44:01.294Z,28.20
2019-04-06T17:46:51.761Z,28.50
2019-04-06T17:49:34.701Z,28.50
2019-04-06T17:52:23.657Z,28.70
2019-04-06T17:55:13.421Z,28.70
2019-04-06T17:58:04.048Z,28.80
2019-04-06T18:00:52.860Z,28.90
2019-04-06T18:03:59.715Z,28.90
2019-04-06T18:06:59.056Z,29.00
2019-04-06T18:10:17.752Z,29.00
2019-04-06T18:13:00.134Z,28.90
2019-04-06T18:15:36.219Z,29.10
2019-04-06T18:18:09.358Z,29.10
2019-04-06T18:20:40.395Z,28.80
2019-04-06T18:23:11.425Z,29.60
2019-04-06T18:25:42.361Z,29.60
2019-04-06T18:28:13.804Z,30.00
2019-04-06T18:30:46.302Z,29.80
2019-04-06T18:33:22.741Z,29.80
2019-04-06T18:35:54.121Z,30.30
2019-04-06T18:38:32.854Z,30.20
2019-04-06T18:41:03.718Z,30.40
2019-04-06T18:43:34.828Z,30.60
2019-04-06T18:46:05.864Z,30.80
2019-04-06T18:48:37.230Z,30.90
2019-04-06T18:51:08.286Z,30.80
2019-04-06T18:53:39.153Z,31.30
2019-04-06T18:56:10.075Z,31.40
2019-04-06T18:58:41.018Z,31.40
2019-04-06T19:01:12.199Z,31.50
2019-04-06T19:03:43.117Z,31.80
2019-04-06T19:06:14.112Z,32.00
2019-04-06T19:08:45.088Z,32.00
2019-04-06T19:11:16.358Z,32.20
2019-04-06T19:13:47.304Z,32.40
2019-04-06T19:16:19.276Z,32.50
2019-04-06T19:18:51.017Z,32.70
2019-04-06T19:21:22.175Z,32.70
2019-04-06T19:23:53.040Z,32.80
2019-04-06T19:26:24.280Z,33.10
2019-04-06T19:28:55.375Z,33.20
2019-04-06T19:31:26.303Z,33.40
2019-04-06T19:33:57.160Z,33.60
2019-04-06T19:36:30.286Z,33.80
2019-04-06T19:39:01.193Z,33.90
2019-04-06T19:41:33.711Z,34.20
2019-04-06T19:44:04.739Z,34.30
2019-04-06T19:46:35.593Z,34.50
2019-04-06T19:49:06.518Z,34.70
2019-04-06T19:51:37.465Z,34.70
2019-04-06T19:54:08.378Z,34.80
2019-04-06T19:56:39.792Z,35.00
2019-04-06T19:59:13.334Z,34.90
2019-04-06T20:01:43.554Z,35.10
2019-04-06T20:04:15.008Z,35.20
2019-04-06T20:06:46.053Z,35.10
2019-04-06T20:09:17.088Z,35.30
2019-04-06T20:11:47.972Z,35.40
2019-04-06T20:14:18.832Z,35.30
2019-04-06T20:16:49.751Z,35.50
2019-04-06T20:19:22.540Z,35.50
2019-04-06T20:21:53.622Z,35.20
2019-04-06T20:24:24.513Z,35.90
2019-04-06T20:26:55.621Z,35.90
2019-04-06T20:29:27.370Z,35.80
2019-04-06T20:31:58.708Z,35.90
2019-04-06T20:34:29.984Z,36.00
2019-04-06T20:37:01.861Z,36.10
2019-04-06T20:39:33.683Z,36.30
2019-04-06T20:42:05.605Z,36.50
2019-04-06T20:44:39.255Z,36.40
2019-04-06T20:47:10.324Z,36.50
2019-04-06T20:49:41.710Z,36.70
2019-04-06T20:52:12.779Z,36.90
2019-04-06T20:54:43.678Z,37.20
2019-04-06T20:57:14.572Z,37.10
2019-04-06T20:59:45.941Z,37.20
2019-04-06T21:02:17.336Z,37.50
2019-04-06T21:04:49.322Z,37.70
2019-04-06T21:07:20.488Z,37.80
2019-04-06T21:09:52.939Z,38.10
2019-04-06T21:12:23.912Z,38.20
2019-04-06T21:14:54.769Z,38.30
2019-04-06T21:17:26.661Z,38.30
2019-04-06T21:19:57.528Z,38.10
2019-04-06T21:22:28.481Z,37.70
2019-04-06T21:24:59.627Z,38.80
2019-04-06T21:27:30.662Z,38.20
2019-04-06T21:30:01.697Z,38.40
2019-04-06T21:32:32.654Z,38.80
2019-04-06T21:35:05.209Z,38.90
2019-04-06T21:37:35.981Z,39.20
2019-04-06T21:40:08.097Z,39.40
2019-04-06T21:42:38.976Z,39.30
2019-04-06T21:45:11.373Z,39.50
2019-04-06T21:47:43.036Z,39.80
2019-04-06T21:50:15.264Z,39.90
2019-04-06T21:52:46.250Z,39.80
2019-04-06T21:55:17.114Z,40.10
2019-04-06T21:57:47.983Z,40.30
2019-04-06T22:00:31.128Z,40.20
2019-04-06T22:03:04.389Z,40.30
2019-04-06T22:05:35.329Z,40.50
2019-04-06T22:08:07.037Z,40.60
2019-04-06T22:10:37.926Z,40.50
2019-04-06T22:13:09.404Z,40.50
2019-04-06T22:15:40.487Z,40.40
2019-04-06T22:18:11.532Z,40.60
2019-04-06T22:20:42.523Z,40.80
2019-04-06T22:23:13.421Z,41.00
2019-04-06T22:25:44.850Z,41.00
2019-04-06T22:28:16.467Z,41.10
2019-04-06T22:30:47.425Z,41.40
2019-04-06T22:33:19.671Z,41.40
2019-04-06T22:35:50.811Z,41.40
2019-04-06T22:38:21.725Z,41.80
2019-04-06T22:40:52.984Z,41.40
2019-04-06T22:43:24.082Z,41.50
2019-04-06T22:45:55.101Z,41.80
2019-04-06T22:48:26.548Z,41.70
2019-04-06T22:50:57.832Z,41.70
2019-04-06T22:53:29.318Z,42.20
2019-04-06T22:56:00.759Z,42.30
2019-04-06T22:58:31.805Z,42.50
2019-04-06T23:01:08.196Z,42.70
2019-04-06T23:04:17.691Z,42.80
2019-04-06T23:07:07.600Z,43.00
2019-04-06T23:09:38.457Z,43.30
2019-04-06T23:12:10.198Z,43.50
2019-04-06T23:14:41.230Z,44.00
2019-04-06T23:17:12.104Z,44.30
2019-04-06T23:19:43.005Z,44.60
2019-04-06T23:22:14.218Z,44.50
2019-04-06T23:24:46.780Z,44.30
2019-04-06T23:27:17.850Z,44.50
2019-04-06T23:29:48.814Z,44.70
2019-04-06T23:32:20.369Z,45.10
2019-04-06T23:34:59.305Z,45.10
2019-04-06T23:37:25.249Z,45.10
2019-04-06T23:39:56.211Z,45.10
2019-04-06T23:42:28.145Z,45.10
2019-04-06T23:44:59.121Z,45.10
2019-04-06T23:47:32.576Z,45.10
2019-04-06T23:50:03.640Z,45.10
2019-04-06T23:52:34.664Z,44.90
2019-04-06T23:55:06.062Z,45.20
2019-04-06T23:57:37.242Z,45.20
